Time;durP1;ratioP1;P1;durP2;ratioP2;P2;SDS_P1;SDS_P2;PMS_P1;PMS_P2;Temp;Humidity;BMP_temperature;BMP_pressure;BME280_temperature;BME280_humidity;BME280_pressure;Samples;Min_cycle;Max_cycle;Signal;HPM_P1;HPM_P2
2023/04/14 00:00:14;;;;;;;15.50;13.90;;;;;;;;;;5070070;28;20693;-86
2023/04/14 00:02:40;;;;;;;17.03;13.77;;;;;;;;;;5070135;28;20660;-85
2023/04/14 00:05:07;;;;;;;14.53;12.90;;;;;;;;;;5069222;28;20209;-85
2023/04/14 00:07:33;;;;;;;16.03;13.97;;;;;;;;;;5072107;28;20165;-87
2023/04/14 00:09:59;;;;;;;15.20;12.60;;;;;;;;;;5069498;28;20189;-85
2023/04/14 00:12:25;;;;;;;17.00;13.53;;;;;;;;;;5069236;28;20181;-86
2023/04/14 00:14:51;;;;;;;14.73;13.17;;;;;;;;;;5069773;28;20246;-87
2023/04/14 00:17:17;;;;;;;16.63;12.37;;;;;;;;;;5069161;28;20180;-84
2023/04/14 00:19:43;;;;;;;14.20;12.70;;;;;;;;;;5070951;28;20177;-87
2023/04/14 00:22:09;;;;;;;15.37;12.90;;;;;;;;;;5068613;28;20173;-82
2023/04/14 00:24:42;;;;;;;15.87;12.83;;;;;;;;;;5068927;28;20209;-83
2023/04/14 00:27:09;;;;;;;15.07;13.23;;;;;;;;;;5068730;28;20173;-83
2023/04/14 00:29:37;;;;;;;16.97;13.73;;;;;;;;;;5068757;28;20169;-84
2023/04/14 00:32:03;;;;;;;13.77;12.03;;;;;;;;;;5068343;28;20161;-83
2023/04/14 00:34:29;;;;;;;17.03;13.60;;;;;;;;;;5071115;28;20173;-84
2023/04/14 00:36:55;;;;;;;15.50;13.87;;;;;;;;;;5069656;28;20664;-84
2023/04/14 00:39:21;;;;;;;14.80;13.23;;;;;;;;;;5068381;28;20185;-83
2023/04/14 00:41:47;;;;;;;18.10;13.40;;;;;;;;;;5068396;28;20184;-85
2023/04/14 00:44:13;;;;;;;15.37;13.77;;;;;;;;;;5069111;28;20228;-83
2023/04/14 00:46:43;;;;;;;13.87;12.47;;;;;;;;;;5069778;28;20173;-83
2023/04/14 00:49:09;;;;;;;15.27;12.77;;;;;;;;;;5068451;28;20230;-87
2023/04/14 00:51:35;;;;;;;16.17;14.47;;;;;;;;;;5068538;28;20181;-85
2023/04/14 00:54:09;;;;;;;15.70;14.10;;;;;;;;;;5066822;28;20721;-83
2023/04/14 00:56:35;;;;;;;17.90;16.03;;;;;;;;;;5068690;28;20211;-83
2023/04/14 00:59:02;;;;;;;18.93;15.87;;;;;;;;;;5068971;28;20177;-83
2023/04/14 01:01:28;;;;;;;17.07;14.50;;;;;;;;;;5069405;28;20288;-84
2023/04/14 01:03:55;;;;;;;16.07;13.97;;;;;;;;;;5068180;28;20205;-83
2023/04/14 01:06:21;;;;;;;18.20;14.57;;;;;;;;;;5069424;28;20181;-86
2023/04/14 01:08:48;;;;;;;17.80;15.37;;;;;;;;;;5068810;28;20204;-85
2023/04/14 01:11:33;;;;;;;14.50;13.00;;;;;;;;;;5067298;28;20165;-84
2023/04/14 01:14:18;;;;;;;14.60;13.10;;;;;;;;;;5068716;28;20286;-83
2023/04/14 01:16:48;;;;;;;15.13;12.97;;;;;;;;;;5069462;28;20181;-85
2023/04/14 01:19:14;;;;;;;14.37;12.83;;;;;;;;;;5068833;28;20571;-85
2023/04/14 01:21:41;;;;;;;15.70;13.33;;;;;;;;;;5069512;28;20236;-83
2023/04/14 01:24:07;;;;;;;15.30;13.70;;;;;;;;;;5068030;28;20192;-85
2023/04/14 01:26:34;;;;;;;14.43;12.93;;;;;;;;;;5068367;28;20924;-83
2023/04/14 01:29:00;;;;;;;15.50;13.83;;;;;;;;;;5069740;28;20165;-83
2023/04/14 01:31:27;;;;;;;16.00;12.10;;;;;;;;;;5068055;28;20204;-83
2023/04/14 01:34:10;;;;;;;13.80;12.33;;;;;;;;;;5068807;28;20180;-83
2023/04/14 01:36:44;;;;;;;14.70;12.87;;;;;;;;;;5068601;28;20192;-85
2023/04/14 01:39:12;;;;;;;13.00;11.60;;;;;;;;;;5072185;28;20185;-84
2023/04/14 01:41:41;;;;;;;13.80;12.40;;;;;;;;;;5072811;28;20567;-83
2023/04/14 01:44:09;;;;;;;17.33;12.87;;;;;;;;;;5071348;28;20283;-86
2023/04/14 01:46:35;;;;;;;15.70;14.00;;;;;;;;;;5089129;28;20173;-84
2023/04/14 01:49:01;;;;;;;17.23;13.67;;;;;;;;;;5070933;28;20669;-85
2023/04/14 01:51:29;;;;;;;14.53;12.57;;;;;;;;;;5071719;28;20177;-83
2023/04/14 01:53:56;;;;;;;13.00;11.67;;;;;;;;;;5071414;28;20268;-83
2023/04/14 01:56:22;;;;;;;13.83;12.43;;;;;;;;;;5071576;28;20176;-84
2023/04/14 01:58:48;;;;;;;15.70;12.43;;;;;;;;;;5072779;28;20184;-84
2023/04/14 02:01:15;;;;;;;15.10;13.60;;;;;;;;;;5072709;28;20531;-85
2023/04/14 02:03:42;;;;;;;14.70;13.20;;;;;;;;;;5071522;28;20200;-83
2023/04/14 02:06:08;;;;;;;14.23;12.73;;;;;;;;;;5071308;28;20181;-83
2023/04/14 02:08:35;;;;;;;19.80;14.37;;;;;;;;;;5071264;28;20185;-82
2023/04/14 02:11:02;;;;;;;18.00;16.10;;;;;;;;;;5073190;28;20235;-84
2023/04/14 02:13:28;;;;;;;17.70;14.67;;;;;;;;;;5071532;28;20234;-84
2023/04/14 02:15:56;;;;;;;13.67;12.27;;;;;;;;;;5071924;28;20185;-84
2023/04/14 02:18:22;;;;;;;13.10;11.73;;;;;;;;;;5071392;28;20238;-84
2023/04/14 02:20:51;;;;;;;17.00;13.00;;;;;;;;;;5071269;28;20273;-82
2023/04/14 02:23:17;;;;;;;14.77;13.27;;;;;;;;;;5072601;28;20456;-83
2023/04/14 02:26:03;;;;;;;15.10;13.27;;;;;;;;;;5072061;28;20691;-83
2023/04/14 02:28:50;;;;;;;17.77;14.37;;;;;;;;;;5071946;28;20205;-83
2023/04/14 02:31:20;;;;;;;16.07;14.37;;;;;;;;;;5071880;28;20169;-83
2023/04/14 02:33:47;;;;;;;17.97;13.37;;;;;;;;;;5071764;28;20588;-84
2023/04/14 02:36:15;;;;;;;17.33;14.53;;;;;;;;;;5070420;28;20183;-83
2023/04/14 02:38:44;;;;;;;16.63;14.23;;;;;;;;;;5071615;28;23189;-84
2023/04/14 02:41:20;;;;;;;17.20;14.07;;;;;;;;;;5071815;28;20165;-83
2023/04/14 02:43:51;;;;;;;15.20;13.70;;;;;;;;;;5072366;28;20168;-85
2023/04/14 02:46:19;;;;;;;16.33;13.37;;;;;;;;;;5071338;28;20695;-84
2023/04/14 02:48:46;;;;;;;17.43;15.40;;;;;;;;;;5071025;28;20189;-85
2023/04/14 02:51:14;;;;;;;14.30;12.80;;;;;;;;;;5071977;28;20223;-85
2023/04/14 02:53:40;;;;;;;15.23;13.47;;;;;;;;;;5070329;28;20165;-84
2023/04/14 02:56:06;;;;;;;15.30;13.03;;;;;;;;;;5072904;28;20176;-84
2023/04/14 02:58:33;;;;;;;15.77;12.80;;;;;;;;;;5071120;28;20184;-85
2023/04/14 03:01:00;;;;;;;15.37;13.77;;;;;;;;;;5072531;28;20228;-86
2023/04/14 03:03:27;;;;;;;15.17;13.57;;;;;;;;;;5072113;28;20185;-84
2023/04/14 03:05:53;;;;;;;15.30;13.60;;;;;;;;;;5070094;28;20327;-84
2023/04/14 03:08:19;;;;;;;15.10;13.60;;;;;;;;;;5072733;28;20184;-83
2023/04/14 03:10:47;;;;;;;14.80;13.30;;;;;;;;;;5070799;28;20184;-84
2023/04/14 03:13:13;;;;;;;17.70;14.97;;;;;;;;;;5070199;28;20179;-86
2023/04/14 03:15:39;;;;;;;19.67;15.97;;;;;;;;;;5070516;28;20659;-85
2023/04/14 03:18:06;;;;;;;17.00;14.73;;;;;;;;;;5070605;28;20267;-84
2023/04/14 03:20:32;;;;;;;18.67;15.50;;;;;;;;;;5071090;28;20216;-83
2023/04/14 03:23:05;;;;;;;15.93;14.23;;;;;;;;;;5087267;28;20192;-83
2023/04/14 03:25:38;;;;;;;17.17;15.37;;;;;;;;;;5069494;28;20238;-84
2023/04/14 03:28:08;;;;;;;16.37;14.63;;;;;;;;;;5070459;28;20191;-85
2023/04/14 03:30:36;;;;;;;17.33;13.83;;;;;;;;;;5070383;28;20625;-85
2023/04/14 03:33:04;;;;;;;15.40;13.80;;;;;;;;;;5070522;28;20208;-84
2023/04/14 03:35:31;;;;;;;14.80;13.20;;;;;;;;;;5071094;28;20187;-83
2023/04/14 03:37:58;;;;;;;19.13;15.97;;;;;;;;;;5070271;28;20215;-86
2023/04/14 03:40:29;;;;;;;17.73;15.23;;;;;;;;;;5070332;28;20571;-84
2023/04/14 03:42:57;;;;;;;15.73;14.03;;;;;;;;;;5070205;28;20641;-84
2023/04/14 03:45:23;;;;;;;17.60;15.80;;;;;;;;;;5070112;28;20575;-86
2023/04/14 03:47:49;;;;;;;15.83;14.33;;;;;;;;;;5071522;28;20622;-86
2023/04/14 03:50:15;;;;;;;17.97;15.40;;;;;;;;;;5070468;28;20300;-83
2023/04/14 03:52:42;;;;;;;17.87;15.97;;;;;;;;;;5069940;28;20188;-84
2023/04/14 03:55:11;;;;;;;15.73;14.13;;;;;;;;;;5069044;28;20199;-84
2023/04/14 03:57:39;;;;;;;17.73;15.77;;;;;;;;;;5069469;28;20208;-86
2023/04/14 04:00:07;;;;;;;17.80;15.90;;;;;;;;;;5068960;28;20180;-84
2023/04/14 04:02:33;;;;;;;18.73;16.73;;;;;;;;;;5071683;28;20177;-86
2023/04/14 04:05:00;;;;;;;16.97;15.17;;;;;;;;;;5069797;28;20220;-86
2023/04/14 04:07:27;;;;;;;18.17;15.63;;;;;;;;;;5069969;28;20645;-84
2023/04/14 04:09:53;;;;;;;19.60;17.30;;;;;;;;;;5070756;28;20177;-83
2023/04/14 04:12:20;;;;;;;20.57;16.43;;;;;;;;;;5069383;28;20260;-84
2023/04/14 04:14:46;;;;;;;17.23;15.43;;;;;;;;;;5086828;28;20180;-84
2023/04/14 04:17:14;;;;;;;19.77;17.53;;;;;;;;;;5069807;28;20185;-87
2023/04/14 04:19:42;;;;;;;24.13;20.20;;;;;;;;;;5070200;28;20272;-83
2023/04/14 04:22:10;;;;;;;20.00;17.90;;;;;;;;;;5069086;28;20276;-86
2023/04/14 04:24:39;;;;;;;19.13;17.00;;;;;;;;;;5069232;28;20201;-84
2023/04/14 04:27:05;;;;;;;17.50;15.70;;;;;;;;;;5069158;28;20222;-86
2023/04/14 04:29:31;;;;;;;17.67;15.77;;;;;;;;;;5071473;28;20168;-83
2023/04/14 04:31:57;;;;;;;19.53;16.67;;;;;;;;;;5069020;28;20573;-84
2023/04/14 04:34:24;;;;;;;17.67;15.77;;;;;;;;;;5068538;28;20181;-83
2023/04/14 04:36:51;;;;;;;17.70;15.90;;;;;;;;;;5068816;28;20213;-84
2023/04/14 04:39:17;;;;;;;18.27;15.97;;;;;;;;;;5070943;28;20196;-86
2023/04/14 04:41:44;;;;;;;17.40;15.20;;;;;;;;;;5070490;28;20205;-86
2023/04/14 04:44:10;;;;;;;16.93;15.13;;;;;;;;;;5068764;28;20200;-84
2023/04/14 04:46:52;;;;;;;20.87;16.77;;;;;;;;;;5068977;28;20193;-86
2023/04/14 04:49:18;;;;;;;20.47;16.53;;;;;;;;;;5069322;28;20204;-83
2023/04/14 04:51:44;;;;;;;19.77;17.13;;;;;;;;;;5069344;28;20272;-84
2023/04/14 04:54:10;;;;;;;20.20;18.13;;;;;;;;;;5068661;28;20260;-84
2023/04/14 04:56:36;;;;;;;22.60;19.03;;;;;;;;;;5069827;28;20644;-84
2023/04/14 04:59:02;;;;;;;26.23;22.17;;;;;;;;;;5069064;28;20177;-82
2023/04/14 05:01:28;;;;;;;29.87;24.50;;;;;;;;;;5068237;28;20585;-84
2023/04/14 05:03:54;;;;;;;28.80;23.73;;;;;;;;;;5068325;28;20294;-82
2023/04/14 05:06:20;;;;;;;36.53;28.03;;;;;;;;;;5066953;28;20272;-83
2023/04/14 05:08:46;;;;;;;31.47;26.83;;;;;;;;;;5069496;28;20310;-84
2023/04/14 05:11:12;;;;;;;29.37;25.27;;;;;;;;;;5065253;28;20628;-85
2023/04/14 05:13:38;;;;;;;30.60;25.47;;;;;;;;;;5067099;28;20173;-85
2023/04/14 05:16:05;;;;;;;36.10;28.93;;;;;;;;;;5065601;28;20216;-83
2023/04/14 05:18:32;;;;;;;40.07;29.40;;;;;;;;;;5081965;28;20178;-86
2023/04/14 05:21:05;;;;;;;41.27;29.93;;;;;;;;;;5065278;28;21171;-87
2023/04/14 05:23:35;;;;;;;43.60;31.13;;;;;;;;;;5068559;28;20169;-85
2023/04/14 05:26:01;;;;;;;42.63;29.83;;;;;;;;;;5068799;28;20212;-86
2023/04/14 05:28:28;;;;;;;43.00;30.70;;;;;;;;;;5068130;28;20642;-84
2023/04/14 05:30:54;;;;;;;46.83;31.93;;;;;;;;;;5068638;28;20184;-84
2023/04/14 05:33:20;;;;;;;48.93;33.73;;;;;;;;;;5067913;28;20172;-85
2023/04/14 05:35:46;;;;;;;49.07;34.37;;;;;;;;;;5070353;28;20208;-83
2023/04/14 05:38:13;;;;;;;57.70;35.10;;;;;;;;;;5067761;28;20188;-85
2023/04/14 05:40:39;;;;;;;49.93;33.23;;;;;;;;;;5067999;28;20173;-85
2023/04/14 05:43:05;;;;;;;51.27;34.50;;;;;;;;;;5068400;28;20193;-85
2023/04/14 05:45:31;;;;;;;51.33;34.33;;;;;;;;;;5067110;28;20299;-84
2023/04/14 05:47:57;;;;;;;54.27;34.97;;;;;;;;;;5070508;28;20244;-85
2023/04/14 05:50:23;;;;;;;53.33;34.23;;;;;;;;;;5069520;28;20181;-83
2023/04/14 05:52:50;;;;;;;51.60;35.57;;;;;;;;;;5067682;28;20177;-83
2023/04/14 05:55:16;;;;;;;53.17;35.50;;;;;;;;;;5067177;28;20276;-83
2023/04/14 05:57:42;;;;;;;50.73;36.07;;;;;;;;;;5068032;28;20193;-85
2023/04/14 06:00:09;;;;;;;50.40;37.13;;;;;;;;;;5069462;28;20517;-84
2023/04/14 06:02:35;;;;;;;47.10;35.43;;;;;;;;;;5068022;28;20173;-83
2023/04/14 06:05:03;;;;;;;56.10;37.83;;;;;;;;;;5068535;28;20197;-86
2023/04/14 06:07:29;;;;;;;47.80;36.40;;;;;;;;;;5067444;28;20260;-85
2023/04/14 06:09:55;;;;;;;50.80;38.43;;;;;;;;;;5068011;28;20188;-86
2023/04/14 06:12:21;;;;;;;46.20;37.30;;;;;;;;;;5067201;28;20165;-84
2023/04/14 06:14:47;;;;;;;44.83;36.70;;;;;;;;;;5069509;28;20173;-85
2023/04/14 06:17:13;;;;;;;45.50;36.67;;;;;;;;;;5069047;28;20184;-86
2023/04/14 06:19:39;;;;;;;48.33;37.33;;;;;;;;;;5067086;28;20177;-86
2023/04/14 06:22:07;;;;;;;43.77;36.43;;;;;;;;;;5069007;28;20173;-84
2023/04/14 06:24:33;;;;;;;41.77;36.53;;;;;;;;;;5071235;28;20205;-86
2023/04/14 06:26:59;;;;;;;43.53;36.27;;;;;;;;;;5071433;28;20276;-84
2023/04/14 06:29:26;;;;;;;40.80;35.30;;;;;;;;;;5069247;28;20177;-84
2023/04/14 06:31:53;;;;;;;41.20;32.43;;;;;;;;;;5067555;28;20188;-84
2023/04/14 06:34:19;;;;;;;42.13;33.73;;;;;;;;;;5069258;28;20193;-84
2023/04/14 06:36:45;;;;;;;36.23;31.07;;;;;;;;;;5067066;28;20226;-84
2023/04/14 06:39:12;;;;;;;33.97;30.37;;;;;;;;;;5070888;28;20183;-84
2023/04/14 06:41:38;;;;;;;34.33;30.63;;;;;;;;;;5069800;28;20177;-86
2023/04/14 06:44:04;;;;;;;32.07;27.27;;;;;;;;;;5068603;28;20181;-86
2023/04/14 06:46:32;;;;;;;30.83;26.77;;;;;;;;;;5070744;28;20328;-87
2023/04/14 06:48:58;;;;;;;28.50;25.43;;;;;;;;;;5070046;28;20181;-87
2023/04/14 06:51:25;;;;;;;27.27;23.67;;;;;;;;;;5069685;28;20165;-85
2023/04/14 06:53:51;;;;;;;29.07;25.97;;;;;;;;;;5070674;28;20187;-86
2023/04/14 06:56:17;;;;;;;30.30;25.07;;;;;;;;;;5071802;28;20181;-86
2023/04/14 06:58:43;;;;;;;25.50;22.60;;;;;;;;;;5070429;28;20189;-85
2023/04/14 07:01:09;;;;;;;25.67;22.87;;;;;;;;;;5069770;28;20177;-85
2023/04/14 07:03:36;;;;;;;22.80;20.60;;;;;;;;;;5069576;28;20174;-85
2023/04/14 07:06:06;;;;;;;23.70;21.23;;;;;;;;;;5070809;28;20274;-85
2023/04/14 07:08:33;;;;;;;22.13;19.93;;;;;;;;;;5069486;28;20287;-85
2023/04/14 07:11:00;;;;;;;25.30;19.47;;;;;;;;;;5070007;28;20646;-85
2023/04/14 07:13:26;;;;;;;20.47;17.90;;;;;;;;;;5068172;28;20189;-84
2023/04/14 07:15:53;;;;;;;26.80;17.87;;;;;;;;;;5070570;28;20226;-84
2023/04/14 07:18:19;;;;;;;20.30;18.23;;;;;;;;;;5072088;28;20165;-87
2023/04/14 07:20:45;;;;;;;19.30;17.40;;;;;;;;;;5070862;28;20247;-85
2023/04/14 07:23:11;;;;;;;18.87;16.83;;;;;;;;;;5070364;28;20207;-86
2023/04/14 07:25:37;;;;;;;19.53;15.87;;;;;;;;;;5069995;28;20204;-86
2023/04/14 07:28:05;;;;;;;18.20;16.23;;;;;;;;;;5069245;28;20192;-86
2023/04/14 07:30:31;;;;;;;17.67;15.77;;;;;;;;;;5069463;28;20244;-86
2023/04/14 07:32:57;;;;;;;18.80;16.40;;;;;;;;;;5069190;28;20609;-88
2023/04/14 07:35:26;;;;;;;18.03;16.17;;;;;;;;;;5066708;28;20181;-86
2023/04/14 07:37:52;;;;;;;16.70;14.30;;;;;;;;;;5069162;28;20177;-86
2023/04/14 07:40:18;;;;;;;18.33;14.57;;;;;;;;;;5070546;28;20192;-87
2023/04/14 07:42:45;;;;;;;16.23;14.33;;;;;;;;;;5069631;28;20247;-86
2023/04/14 07:45:11;;;;;;;16.93;15.00;;;;;;;;;;5071311;28;20208;-87
2023/04/14 07:47:37;;;;;;;18.50;13.43;;;;;;;;;;5069991;28;20188;-86
2023/04/14 07:50:03;;;;;;;14.77;13.27;;;;;;;;;;5068631;28;20188;-85
2023/04/14 07:52:29;;;;;;;15.77;12.93;;;;;;;;;;5068579;28;20185;-85
2023/04/14 07:54:55;;;;;;;17.17;12.67;;;;;;;;;;5070792;28;20238;-86
2023/04/14 07:57:21;;;;;;;14.17;12.77;;;;;;;;;;5070631;28;20581;-87
2023/04/14 07:59:47;;;;;;;15.23;11.83;;;;;;;;;;5069872;28;20526;-87
2023/04/14 08:02:14;;;;;;;13.97;11.97;;;;;;;;;;5070625;28;20172;-86
2023/04/14 08:04:40;;;;;;;13.80;12.40;;;;;;;;;;5069844;28;20208;-87
2023/04/14 08:07:06;;;;;;;17.57;12.83;;;;;;;;;;5069878;28;20189;-88
2023/04/14 08:09:33;;;;;;;15.63;12.83;;;;;;;;;;5069604;28;20259;-88
2023/04/14 08:12:00;;;;;;;13.77;12.47;;;;;;;;;;5070585;28;20629;-87
2023/04/14 08:14:26;;;;;;;12.87;11.67;;;;;;;;;;5071005;28;20200;-88
2023/04/14 08:16:52;;;;;;;12.67;11.37;;;;;;;;;;5070755;28;20200;-87
2023/04/14 08:19:18;;;;;;;16.50;11.97;;;;;;;;;;5072335;28;20246;-89
2023/04/14 08:21:44;;;;;;;12.60;11.23;;;;;;;;;;5069712;28;20236;-87
2023/04/14 08:24:11;;;;;;;12.03;10.73;;;;;;;;;;5070221;28;20196;-87
2023/04/14 08:26:37;;;;;;;11.47;10.07;;;;;;;;;;5070063;28;20787;-91
2023/04/14 08:29:03;;;;;;;15.90;11.13;;;;;;;;;;5069520;28;20184;-87
2023/04/14 08:31:29;;;;;;;13.97;9.70;;;;;;;;;;5070383;28;20183;-88
2023/04/14 08:33:56;;;;;;;11.00;9.97;;;;;;;;;;5068099;28;20177;-85
2023/04/14 08:36:22;;;;;;;13.83;10.53;;;;;;;;;;5069528;28;20169;-85
2023/04/14 08:38:48;;;;;;;11.73;10.57;;;;;;;;;;5069717;28;20176;-87
2023/04/14 08:41:15;;;;;;;12.80;9.90;;;;;;;;;;5069621;28;20177;-87
2023/04/14 08:43:41;;;;;;;12.27;9.90;;;;;;;;;;5066145;28;20534;-85
2023/04/14 08:46:10;;;;;;;15.27;12.67;;;;;;;;;;5069335;28;20197;-87
2023/04/14 08:48:37;;;;;;;10.67;9.20;;;;;;;;;;5070980;28;20165;-87
2023/04/14 08:51:09;;;;;;;10.50;9.37;;;;;;;;;;5069853;28;20271;-87
2023/04/14 08:53:41;;;;;;;11.27;8.73;;;;;;;;;;5069679;28;20165;-88
2023/04/14 08:56:08;;;;;;;11.03;9.23;;;;;;;;;;5069082;28;20181;-86
2023/04/14 08:58:34;;;;;;;10.77;8.37;;;;;;;;;;5068705;28;20181;-87
2023/04/14 09:01:02;;;;;;;14.63;8.50;;;;;;;;;;5068601;28;20569;-87
2023/04/14 09:03:28;;;;;;;8.67;7.80;;;;;;;;;;5069813;28;20260;-85
2023/04/14 09:05:54;;;;;;;9.17;8.27;;;;;;;;;;5069029;28;20197;-85
2023/04/14 09:08:19;;;;;;;11.33;8.83;;;;;;;;;;5068838;28;20188;-87
2023/04/14 09:10:46;;;;;;;10.30;8.40;;;;;;;;;;5069222;28;20621;-87
2023/04/14 09:13:14;;;;;;;11.07;7.83;;;;;;;;;;5074855;28;20185;-86
2023/04/14 09:15:40;;;;;;;7.60;6.70;;;;;;;;;;5068744;28;20175;-85
2023/04/14 09:18:06;;;;;;;9.30;6.73;;;;;;;;;;5070190;28;20181;-87
2023/04/14 09:20:32;;;;;;;10.40;7.43;;;;;;;;;;5069318;28;20731;-86
2023/04/14 09:22:58;;;;;;;10.50;7.93;;;;;;;;;;5070082;28;20192;-85
2023/04/14 09:25:25;;;;;;;7.90;6.73;;;;;;;;;;5069100;28;20226;-87
2023/04/14 09:27:51;;;;;;;7.30;6.60;;;;;;;;;;5068695;28;20280;-87
2023/04/14 09:30:17;;;;;;;8.20;6.60;;;;;;;;;;5070489;28;20233;-87
2023/04/14 09:32:44;;;;;;;9.47;6.63;;;;;;;;;;5068627;28;20275;-87
2023/04/14 09:35:13;;;;;;;6.67;5.90;;;;;;;;;;5068355;28;20528;-87
2023/04/14 09:37:43;;;;;;;8.47;6.47;;;;;;;;;;5067832;28;20189;-86
2023/04/14 09:40:10;;;;;;;6.77;6.17;;;;;;;;;;5068903;28;20181;-87
2023/04/14 09:42:38;;;;;;;8.13;6.43;;;;;;;;;;5069617;28;20533;-85
2023/04/14 09:45:04;;;;;;;7.33;6.53;;;;;;;;;;5068091;28;20322;-86
2023/04/14 09:47:30;;;;;;;13.97;6.80;;;;;;;;;;5068771;28;20185;-86
2023/04/14 09:49:57;;;;;;;7.13;6.13;;;;;;;;;;5069164;28;20200;-88
2023/04/14 09:52:35;;;;;;;7.73;6.53;;;;;;;;;;5069528;28;20173;-85
2023/04/14 09:55:01;;;;;;;9.50;6.17;;;;;;;;;;5069510;28;20169;-86
2023/04/14 09:57:28;;;;;;;7.07;6.37;;;;;;;;;;5070265;28;20636;-87
2023/04/14 09:59:54;;;;;;;6.17;5.57;;;;;;;;;;5070851;28;20239;-86
2023/04/14 10:02:20;;;;;;;7.10;6.50;;;;;;;;;;5073212;28;20214;-86
2023/04/14 10:05:02;;;;;;;133.60;80.10;;;;;;;;;;5070992;28;20750;-85
2023/04/14 10:07:28;;;;;;;29.83;19.57;;;;;;;;;;5088728;28;20184;-86
2023/04/14 10:10:06;;;;;;;46.27;40.80;;;;;;;;;;5073113;28;20175;-87
2023/04/14 10:12:32;;;;;;;45.87;34.17;;;;;;;;;;5073509;28;20165;-86
2023/04/14 10:14:58;;;;;;;42.40;33.87;;;;;;;;;;5072632;28;20549;-86
2023/04/14 10:17:25;;;;;;;130.53;85.50;;;;;;;;;;5072199;28;20501;-85
2023/04/14 10:19:51;;;;;;;133.77;80.17;;;;;;;;;;5071378;28;20181;-86
2023/04/14 10:22:17;;;;;;;60.93;39.13;;;;;;;;;;5073000;28;20181;-87
2023/04/14 10:24:43;;;;;;;97.63;73.93;;;;;;;;;;5072527;28;20247;-86
2023/04/14 10:27:09;;;;;;;87.70;67.20;;;;;;;;;;5072511;28;20181;-86
2023/04/14 10:29:35;;;;;;;24.00;16.43;;;;;;;;;;5071832;28;20480;-87
2023/04/14 10:32:05;;;;;;;36.13;30.47;;;;;;;;;;5070803;28;20201;-87
2023/04/14 10:34:32;;;;;;;58.43;45.20;;;;;;;;;;5070029;28;20239;-87
2023/04/14 10:37:17;;;;;;;103.73;62.67;;;;;;;;;;5069096;28;20169;-88
2023/04/14 10:39:43;;;;;;;13.83;12.00;;;;;;;;;;5070097;28;20252;-89
2023/04/14 10:42:09;;;;;;;15.73;13.40;;;;;;;;;;5072092;28;20180;-90
2023/04/14 10:44:36;;;;;;;8.37;7.57;;;;;;;;;;5071721;28;20201;-83
2023/04/14 10:47:03;;;;;;;7.20;6.50;;;;;;;;;;5072657;28;20203;-89
2023/04/14 10:49:37;;;;;;;7.20;6.10;;;;;;;;;;5069396;28;20185;-88
2023/04/14 10:52:03;;;;;;;8.63;6.13;;;;;;;;;;5072045;28;20169;-88
2023/04/14 10:54:49;;;;;;;7.27;5.87;;;;;;;;;;5071239;28;20173;-87
2023/04/14 10:57:17;;;;;;;9.97;5.70;;;;;;;;;;5071494;28;20180;-88
2023/04/14 10:59:43;;;;;;;6.17;5.57;;;;;;;;;;5070158;28;20177;-86
2023/04/14 11:02:28;;;;;;;7.83;5.30;;;;;;;;;;5070458;28;20502;-86
2023/04/14 11:04:58;;;;;;;6.67;5.47;;;;;;;;;;5070144;28;20197;-87
2023/04/14 11:07:24;;;;;;;5.10;4.60;;;;;;;;;;5069684;28;20220;-85
2023/04/14 11:09:50;;;;;;;7.30;5.40;;;;;;;;;;5071700;28;20252;-87
2023/04/14 11:12:24;;;;;;;5.50;4.30;;;;;;;;;;5071521;28;20629;-87
2023/04/14 11:14:55;;;;;;;6.00;5.33;;;;;;;;;;5071706;28;20169;-86
2023/04/14 11:17:21;;;;;;;6.03;5.43;;;;;;;;;;5069621;28;20197;-86
2023/04/14 11:19:47;;;;;;;7.13;5.17;;;;;;;;;;5070454;28;20215;-86
2023/04/14 11:22:13;;;;;;;5.90;5.13;;;;;;;;;;5071976;28;20170;-85
2023/04/14 11:24:40;;;;;;;6.63;5.00;;;;;;;;;;5071445;28;20195;-86
2023/04/14 11:27:10;;;;;;;6.00;4.63;;;;;;;;;;5070488;28;20207;-85
2023/04/14 11:29:36;;;;;;;12.93;11.60;;;;;;;;;;5069653;28;20173;-87
2023/04/14 11:32:05;;;;;;;18.90;16.97;;;;;;;;;;5070766;28;20184;-85
2023/04/14 11:37:36;;;;;;;7.97;6.50;;;;;;;;;;5069944;28;20181;-87
2023/04/14 11:40:04;;;;;;;15.27;13.70;;;;;;;;;;5071089;28;20192;-89
2023/04/14 11:42:30;;;;;;;18.87;16.97;;;;;;;;;;5074148;28;20231;-86
2023/04/14 11:44:57;;;;;;;11.53;10.53;;;;;;;;;;5073496;28;20205;-87
2023/04/14 11:47:23;;;;;;;23.70;21.20;;;;;;;;;;5073265;28;20657;-88
2023/04/14 11:49:49;;;;;;;10.07;6.03;;;;;;;;;;5071363;28;20199;-88
2023/04/14 11:52:16;;;;;;;8.10;7.17;;;;;;;;;;5070047;28;20169;-87
2023/04/14 11:54:42;;;;;;;15.77;12.53;;;;;;;;;;5072581;28;20531;-87
2023/04/14 11:57:17;;;;;;;8.03;7.13;;;;;;;;;;5067074;28;20196;-89
2023/04/14 11:59:44;;;;;;;12.23;8.83;;;;;;;;;;5070935;28;20617;-90
2023/04/14 12:02:17;;;;;;;15.97;10.37;;;;;;;;;;5071832;28;21483;-89
2023/04/14 12:04:44;;;;;;;15.57;13.37;;;;;;;;;;5071559;28;20696;-91
2023/04/14 12:07:11;;;;;;;11.00;6.73;;;;;;;;;;5071213;28;20625;-89
2023/04/14 12:09:39;;;;;;;12.23;9.90;;;;;;;;;;5072151;28;20227;-89
2023/04/14 12:12:12;;;;;;;11.73;7.73;;;;;;;;;;5066314;28;20188;-90
2023/04/14 12:14:42;;;;;;;37.77;27.67;;;;;;;;;;5069318;28;20528;-90
2023/04/14 12:17:09;;;;;;;27.33;19.73;;;;;;;;;;5069103;28;20188;-89
2023/04/14 12:19:36;;;;;;;9.53;6.03;;;;;;;;;;5069665;28;20169;-90
2023/04/14 12:22:03;;;;;;;10.93;6.87;;;;;;;;;;5071930;28;20224;-90
2023/04/14 12:27:33;;;;;;;5.93;4.90;;;;;;;;;;5070673;28;20610;-90
2023/04/14 12:29:59;;;;;;;34.63;28.40;;;;;;;;;;5069479;28;20188;-90
2023/04/14 12:32:28;;;;;;;27.83;21.80;;;;;;;;;;5068874;28;20224;-87
2023/04/14 12:34:56;;;;;;;45.20;33.50;;;;;;;;;;5070468;28;20204;-85
2023/04/14 12:37:26;;;;;;;15.67;11.20;;;;;;;;;;5067314;28;20176;-86
2023/04/14 12:39:57;;;;;;;11.57;9.13;;;;;;;;;;5067726;28;20172;-87
2023/04/14 12:42:24;;;;;;;24.27;17.03;;;;;;;;;;5066106;28;20185;-87
2023/04/14 12:44:54;;;;;;;42.70;29.47;;;;;;;;;;5069286;28;20565;-87
2023/04/14 12:47:27;;;;;;;8.23;7.13;;;;;;;;;;5068605;28;20226;-86
2023/04/14 12:49:53;;;;;;;40.40;29.67;;;;;;;;;;5070291;28;20181;-86
2023/04/14 12:52:36;;;;;;;6.43;5.80;;;;;;;;;;5069539;28;20276;-85
2023/04/14 12:55:03;;;;;;;6.23;5.60;;;;;;;;;;5070581;28;20181;-87
2023/04/14 12:57:30;;;;;;;7.47;3.67;;;;;;;;;;5070135;28;20227;-89
2023/04/14 12:59:56;;;;;;;3.33;3.03;;;;;;;;;;5069045;28;20161;-84
2023/04/14 13:02:22;;;;;;;3.27;3.00;;;;;;;;;;5070114;28;20172;-84
2023/04/14 13:04:49;;;;;;;3.47;3.17;;;;;;;;;;5070228;28;20227;-87
2023/04/14 13:07:15;;;;;;;3.67;2.97;;;;;;;;;;5071196;28;20173;-86
2023/04/14 13:09:42;;;;;;;4.57;3.50;;;;;;;;;;5069996;28;20214;-84
2023/04/14 13:12:08;;;;;;;4.83;2.90;;;;;;;;;;5065936;28;20196;-87
2023/04/14 13:14:34;;;;;;;4.23;3.70;;;;;;;;;;5068023;28;20173;-85
2023/04/14 13:17:00;;;;;;;5.30;4.57;;;;;;;;;;5068813;28;20647;-85
2023/04/14 13:19:26;;;;;;;21.50;19.13;;;;;;;;;;5068729;28;20173;-85
2023/04/14 13:21:52;;;;;;;84.73;73.13;;;;;;;;;;5069165;28;20212;-84
2023/04/14 13:24:18;;;;;;;31.43;25.70;;;;;;;;;;5069702;28;20617;-86
2023/04/14 13:26:45;;;;;;;11.10;4.80;;;;;;;;;;5068076;28;20188;-85
2023/04/14 13:29:12;;;;;;;5.03;3.67;;;;;;;;;;5067494;28;20515;-87
2023/04/14 13:31:38;;;;;;;6.57;5.10;;;;;;;;;;5067697;28;20618;-85
2023/04/14 13:34:04;;;;;;;5.80;2.97;;;;;;;;;;5073537;28;20246;-88
2023/04/14 13:36:30;;;;;;;11.07;6.77;;;;;;;;;;5073616;28;20225;-88
2023/04/14 13:38:56;;;;;;;11.20;8.97;;;;;;;;;;5072631;28;20181;-87
2023/04/14 13:41:23;;;;;;;7.43;6.53;;;;;;;;;;5072251;28;20278;-87
2023/04/14 13:43:49;;;;;;;25.43;19.83;;;;;;;;;;5071114;28;20239;-85
2023/04/14 13:46:16;;;;;;;32.87;25.90;;;;;;;;;;5073347;28;20616;-84
2023/04/14 13:48:45;;;;;;;12.17;10.93;;;;;;;;;;5072077;28;20177;-87
2023/04/14 13:51:11;;;;;;;47.67;35.27;;;;;;;;;;5073287;28;20575;-84
2023/04/14 13:53:37;;;;;;;82.47;62.80;;;;;;;;;;5069741;28;20276;-85
2023/04/14 13:56:03;;;;;;;80.27;70.77;;;;;;;;;;5069903;28;20197;-85
2023/04/14 13:58:29;;;;;;;107.60;83.70;;;;;;;;;;5069861;28;20173;-85
2023/04/14 14:00:55;;;;;;;102.40;74.10;;;;;;;;;;5072218;28;20263;-85
2023/04/14 14:03:21;;;;;;;252.40;171.03;;;;;;;;;;5071026;28;20701;-86
2023/04/14 14:05:47;;;;;;;270.27;173.67;;;;;;;;;;5070737;28;20287;-86
2023/04/14 14:08:14;;;;;;;161.87;110.60;;;;;;;;;;5068460;28;20173;-85
2023/04/14 14:10:40;;;;;;;14.87;10.73;;;;;;;;;;5069207;28;20197;-84
2023/04/14 14:13:07;;;;;;;57.43;37.53;;;;;;;;;;5071360;28;20227;-86
2023/04/14 14:15:33;;;;;;;25.70;16.97;;;;;;;;;;5069855;28;20280;-85
2023/04/14 14:17:59;;;;;;;130.13;77.53;;;;;;;;;;5070287;28;20625;-86
2023/04/14 14:20:25;;;;;;;35.70;21.63;;;;;;;;;;5070942;28;20221;-87
2023/04/14 14:22:51;;;;;;;13.07;9.70;;;;;;;;;;5070080;28;20528;-85
2023/04/14 14:25:17;;;;;;;9.23;7.47;;;;;;;;;;5072137;28;20189;-84
2023/04/14 14:27:43;;;;;;;5.93;3.77;;;;;;;;;;5070125;28;20188;-85